Time;durP1;ratioP1;P1;durP2;ratioP2;P2;SDS_P1;SDS_P2;PMS_P1;PMS_P2;Temp;Humidity;BMP_temperature;BMP_pressure;BME280_temperature;BME280_humidity;BME280_pressure;Samples;Min_cycle;Max_cycle;Signal;HPM_P1;HPM_P2
2022/03/14 00:02:06;;;;;;;19.27;12.82;;;10.10;89.10;;;;;;4977824;28;20069;-90
2022/03/14 00:04:34;;;;;;;21.08;12.90;;;10.10;89.40;;;;;;4994180;28;20121;-89
2022/03/14 00:07:00;;;;;;;17.75;12.48;;;10.10;90.30;;;;;;4962358;28;20046;-89
2022/03/14 00:09:27;;;;;;;21.77;12.82;;;10.20;91.10;;;;;;4957770;28;20504;-89
2022/03/14 00:11:57;;;;;;;20.02;13.23;;;10.10;90.90;;;;;;4993345;28;20480;-89
2022/03/14 00:14:25;;;;;;;22.02;13.68;;;10.10;91.50;;;;;;4993632;28;20153;-89
2022/03/14 00:16:55;;;;;;;21.77;13.80;;;10.10;91.30;;;;;;4975439;28;20124;-89
2022/03/14 00:19:21;;;;;;;19.98;13.05;;;10.10;91.50;;;;;;4977433;28;20127;-89
2022/03/14 00:21:47;;;;;;;21.25;13.80;;;10.00;91.50;;;;;;4985748;28;20593;-89
2022/03/14 00:24:13;;;;;;;21.67;13.63;;;10.00;92.10;;;;;;4988533;28;20096;-89
2022/03/14 00:26:39;;;;;;;21.80;12.93;;;10.00;92.20;;;;;;4989608;28;20039;-89
2022/03/14 00:29:09;;;;;;;21.15;13.70;;;9.90;92.40;;;;;;4970775;28;20041;-89
2022/03/14 00:31:35;;;;;;;20.88;13.73;;;10.00;92.40;;;;;;4971149;28;20042;-89
2022/03/14 00:34:09;;;;;;;21.98;14.35;;;9.90;92.60;;;;;;4977125;28;20042;-89
2022/03/14 00:36:35;;;;;;;20.90;14.05;;;10.10;93.20;;;;;;4975897;28;20046;-89
2022/03/14 00:39:00;;;;;;;21.23;13.70;;;9.80;93.20;;;;;;4993544;28;20420;-89
2022/03/14 00:41:26;;;;;;;20.17;13.75;;;9.80;93.20;;;;;;4973366;28;20093;-89
2022/03/14 00:43:52;;;;;;;22.73;14.18;;;9.70;93.50;;;;;;4973679;28;20042;-89
2022/03/14 00:46:18;;;;;;;20.80;13.65;;;9.70;93.80;;;;;;4993208;28;20097;-89
2022/03/14 00:48:45;;;;;;;21.13;13.73;;;9.60;94.20;;;;;;4970530;28;20046;-89
2022/03/14 00:51:11;;;;;;;19.98;12.93;;;9.60;94.10;;;;;;4993573;28;20428;-88
2022/03/14 00:53:37;;;;;;;18.95;12.60;;;9.50;94.20;;;;;;4977257;28;20129;-89
2022/03/14 00:56:03;;;;;;;20.55;13.18;;;9.50;94.40;;;;;;4992992;28;20057;-89
2022/03/14 00:58:29;;;;;;;21.92;14.13;;;9.40;94.70;;;;;;4973767;28;20121;-89
2022/03/14 01:00:55;;;;;;;19.25;13.32;;;9.40;94.80;;;;;;4938102;28;20121;-89
2022/03/14 01:03:21;;;;;;;20.55;13.13;;;9.40;95.60;;;;;;4993090;28;20042;-89
2022/03/14 01:05:48;;;;;;;23.05;13.23;;;9.60;95.90;;;;;;4992917;28;20050;-89
2022/03/14 01:08:14;;;;;;;19.20;13.35;;;9.40;95.90;;;;;;4981212;28;20388;-89
2022/03/14 01:10:39;;;;;;;18.85;12.80;;;9.30;96.10;;;;;;4976704;28;20129;-89
2022/03/14 01:13:06;;;;;;;20.75;13.50;;;9.70;96.50;;;;;;4992852;28;20128;-89
2022/03/14 01:15:32;;;;;;;21.85;13.75;;;9.30;96.70;;;;;;4993097;28;20489;-89
2022/03/14 01:18:01;;;;;;;23.70;14.05;;;9.10;96.90;;;;;;4992589;28;20065;-89
2022/03/14 01:20:27;;;;;;;19.98;13.63;;;9.30;97.50;;;;;;4960427;28;20412;-89
2022/03/14 01:22:55;;;;;;;20.83;14.63;;;9.10;97.80;;;;;;4993243;28;20034;-89
2022/03/14 01:25:24;;;;;;;20.52;13.80;;;9.10;98.20;;;;;;4976824;28;20532;-89
2022/03/14 01:27:51;;;;;;;21.08;13.32;;;9.00;98.60;;;;;;4975072;28;20047;-89
2022/03/14 01:30:19;;;;;;;23.48;14.90;;;9.00;99.10;;;;;;4957377;28;20050;-89
2022/03/14 01:32:45;;;;;;;20.60;13.57;;;9.00;99.30;;;;;;4992557;28;20051;-89
2022/03/14 01:35:11;;;;;;;21.33;15.15;;;9.00;99.70;;;;;;4960595;28;20129;-89
2022/03/14 01:37:37;;;;;;;19.25;13.50;;;8.90;99.90;;;;;;4976826;28;20129;-89
2022/03/14 01:40:03;;;;;;;22.80;14.73;;;9.90;99.90;;;;;;4976914;28;20045;-88
2022/03/14 01:42:30;;;;;;;18.80;13.55;;;9.00;99.90;;;;;;4971850;28;20042;-88
2022/03/14 01:44:55;;;;;;;24.20;13.48;;;9.50;99.90;;;;;;4976732;28;20393;-88
2022/03/14 01:47:21;;;;;;;20.92;13.43;;;8.90;99.90;;;;;;4976417;28;20046;-88
2022/03/14 01:49:48;;;;;;;21.85;13.77;;;8.90;99.90;;;;;;4978379;28;20050;-88
2022/03/14 01:52:14;;;;;;;21.65;13.93;;;8.90;99.90;;;;;;4964426;28;20500;-88
2022/03/14 01:54:43;;;;;;;20.55;14.32;;;8.90;99.90;;;;;;4996674;28;20046;-88
2022/03/14 01:57:09;;;;;;;23.13;15.20;;;9.00;99.90;;;;;;4967906;28;20042;-87
2022/03/14 01:59:37;;;;;;;25.70;16.48;;;8.90;99.90;;;;;;4993309;28;20041;-87
2022/03/14 02:02:03;;;;;;;26.00;16.48;;;8.90;99.90;;;;;;4991950;28;20038;-87
2022/03/14 02:04:29;;;;;;;26.52;16.98;;;9.00;99.90;;;;;;4970881;28;20042;-87
2022/03/14 02:06:57;;;;;;;25.70;16.05;;;9.00;99.90;;;;;;4979988;28;20050;-87
2022/03/14 02:09:23;;;;;;;26.17;16.33;;;8.90;99.90;;;;;;4996256;28;20038;-88
2022/03/14 02:11:55;;;;;;;23.90;15.48;;;8.90;99.90;;;;;;4966947;28;20469;-89
2022/03/14 02:14:21;;;;;;;22.90;14.93;;;9.00;99.90;;;;;;4993078;28;20413;-89
2022/03/14 02:16:46;;;;;;;21.70;13.63;;;8.90;99.90;;;;;;4973302;28;20046;-89
2022/03/14 02:19:12;;;;;;;19.00;12.95;;;9.00;99.90;;;;;;4995991;28;20447;-89
2022/03/14 02:21:38;;;;;;;22.08;13.38;;;9.00;99.90;;;;;;4992663;28;20512;-89
2022/03/14 02:24:04;;;;;;;19.40;12.60;;;9.00;99.90;;;;;;4993742;28;20038;-87
2022/03/14 02:26:30;;;;;;;19.42;12.75;;;9.00;99.90;;;;;;4980124;28;20042;-87
2022/03/14 02:28:55;;;;;;;23.50;14.15;;;9.00;99.90;;;;;;4982230;28;20102;-89
2022/03/14 02:31:21;;;;;;;28.00;15.65;;;9.10;99.90;;;;;;4967319;23;20497;-87
2022/03/14 02:33:47;;;;;;;19.48;12.18;;;9.10;99.90;;;;;;4944188;28;20497;-87
2022/03/14 02:36:15;;;;;;;17.48;12.25;;;9.10;99.90;;;;;;4943687;28;20038;-87
2022/03/14 02:38:41;;;;;;;24.83;14.10;;;9.10;99.90;;;;;;4951648;28;20057;-87
2022/03/14 02:41:06;;;;;;;37.20;18.92;;;9.10;99.90;;;;;;4923522;28;20489;-87
2022/03/14 02:43:34;;;;;;;30.80;16.85;;;9.10;99.90;;;;;;4939285;28;20088;-87
2022/03/14 02:46:00;;;;;;;43.00;20.77;;;9.60;99.90;;;;;;4940369;28;20429;-87
2022/03/14 02:48:26;;;;;;;38.90;20.10;;;9.10;99.90;;;;;;4930441;28;20049;-87
2022/03/14 02:50:53;;;;;;;34.83;18.48;;;9.10;99.90;;;;;;4938998;28;20043;-87
2022/03/14 02:53:21;;;;;;;21.35;13.10;;;9.10;99.90;;;;;;4927724;28;20042;-87
2022/03/14 02:55:46;;;;;;;35.55;19.17;;;9.10;99.90;;;;;;4927548;28;20043;-87
2022/03/14 02:58:12;;;;;;;21.65;13.23;;;9.20;99.90;;;;;;4941250;28;20562;-88
2022/03/14 03:00:38;;;;;;;19.20;11.50;;;9.20;99.90;;;;;;4937948;28;20061;-88
2022/03/14 03:03:08;;;;;;;32.10;16.60;;;9.20;99.90;;;;;;4941142;28;20054;-89
2022/03/14 03:05:36;;;;;;;95.43;38.03;;;9.10;99.90;;;;;;4947257;28;20045;-89
2022/03/14 03:08:03;;;;;;;76.35;33.08;;;9.20;99.90;;;;;;4958551;28;20046;-90
2022/03/14 03:10:29;;;;;;;71.70;31.58;;;9.20;99.90;;;;;;4936642;28;20074;-90
2022/03/14 03:12:55;;;;;;;26.88;14.73;;;9.10;99.90;;;;;;4939662;28;20129;-90
2022/03/14 03:15:24;;;;;;;20.02;12.35;;;9.20;99.90;;;;;;4926007;28;20079;-89
2022/03/14 03:17:50;;;;;;;116.78;40.95;;;9.10;99.90;;;;;;4957044;28;20050;-88
2022/03/14 03:20:16;;;;;;;102.35;36.70;;;9.20;99.90;;;;;;4947318;28;20393;-87
2022/03/14 03:22:42;;;;;;;81.25;33.17;;;9.20;99.90;;;;;;4939707;28;20047;-87
2022/03/14 03:25:08;;;;;;;56.88;24.85;;;8.70;99.90;;;;;;4928278;28;20039;-87
2022/03/14 03:27:34;;;;;;;111.00;41.63;;;9.20;99.90;;;;;;4958363;28;20548;-87
2022/03/14 03:30:01;;;;;;;97.25;40.53;;;9.20;99.90;;;;;;4906594;29;20513;-87
2022/03/14 03:32:27;;;;;;;31.35;17.95;;;9.90;99.90;;;;;;4957477;28;20133;-87
2022/03/14 03:34:53;;;;;;;25.70;13.98;;;9.20;99.90;;;;;;4967500;28;20539;-88
2022/03/14 03:37:19;;;;;;;22.70;16.85;;;9.40;99.90;;;;;;4913503;28;20045;-88
2022/03/14 03:39:44;;;;;;;20.10;14.60;;;10.10;99.90;;;;;;4926790;28;20042;-88
2022/03/14 03:42:10;;;;;;;21.27;14.98;;;9.20;99.90;;;;;;4940245;28;20054;-88
2022/03/14 03:44:36;;;;;;;18.10;12.15;;;9.90;99.90;;;;;;4943808;28;20043;-88
2022/03/14 03:47:03;;;;;;;16.67;10.90;;;9.10;99.90;;;;;;4954730;29;20049;-88
2022/03/14 03:49:29;;;;;;;15.68;10.98;;;9.10;99.90;;;;;;4959245;28;20043;-88
2022/03/14 03:51:55;;;;;;;16.67;10.52;;;9.10;99.90;;;;;;4935435;28;20065;-87
2022/03/14 03:54:21;;;;;;;14.98;10.75;;;9.10;99.90;;;;;;4929001;28;20046;-87
2022/03/14 03:56:50;;;;;;;18.65;10.82;;;9.00;99.90;;;;;;4964339;28;20035;-87
2022/03/14 03:59:16;;;;;;;15.32;9.68;;;9.00;99.90;;;;;;4941401;28;20393;-87
2022/03/14 04:01:43;;;;;;;16.10;11.25;;;9.00;99.90;;;;;;4940276;28;20176;-87
2022/03/14 04:04:11;;;;;;;15.30;10.77;;;9.10;99.90;;;;;;4957868;28;20050;-87
2022/03/14 04:06:41;;;;;;;15.25;10.95;;;8.90;99.90;;;;;;4970500;28;20050;-87
2022/03/14 04:09:07;;;;;;;15.43;10.23;;;8.90;99.90;;;;;;4933645;29;20039;-88
2022/03/14 04:11:35;;;;;;;13.63;9.05;;;9.00;99.90;;;;;;4966593;28;20516;-88
2022/03/14 04:14:01;;;;;;;12.65;9.27;;;8.80;99.90;;;;;;4970420;28;20046;-88
2022/03/14 04:16:28;;;;;;;11.18;8.32;;;8.70;99.90;;;;;;4958160;28;20105;-88
2022/03/14 04:18:54;;;;;;;11.50;8.02;;;8.90;99.90;;;;;;4936714;29;20122;-88
2022/03/14 04:21:20;;;;;;;10.85;7.38;;;8.70;99.90;;;;;;4956400;28;20042;-88
2022/03/14 04:23:46;;;;;;;11.45;7.13;;;8.60;99.90;;;;;;4955591;28;20127;-88
2022/03/14 04:26:12;;;;;;;10.63;7.40;;;8.70;99.90;;;;;;4963718;28;20126;-89
2022/03/14 04:28:41;;;;;;;11.68;7.43;;;8.60;99.90;;;;;;4941889;28;20062;-89
2022/03/14 04:31:08;;;;;;;9.85;7.25;;;8.60;99.90;;;;;;4953417;28;20043;-89
2022/03/14 04:33:34;;;;;;;12.23;6.78;;;9.00;99.90;;;;;;4943531;28;20062;-89
2022/03/14 04:36:00;;;;;;;11.32;6.90;;;8.60;99.90;;;;;;4973486;28;20058;-89
2022/03/14 04:38:27;;;;;;;9.93;6.22;;;8.60;99.90;;;;;;4973539;28;20050;-89
2022/03/14 04:40:53;;;;;;;9.75;6.60;;;8.70;99.90;;;;;;4953371;29;20039;-88
2022/03/14 04:43:20;;;;;;;7.97;5.90;;;8.80;99.90;;;;;;4964493;28;20050;-90
2022/03/14 04:45:46;;;;;;;9.48;6.28;;;8.90;99.90;;;;;;4943747;28;20039;-89
2022/03/14 04:48:12;;;;;;;8.27;5.70;;;8.90;99.90;;;;;;4949475;29;20500;-90
2022/03/14 04:50:39;;;;;;;8.20;5.45;;;9.00;99.90;;;;;;4968482;28;20130;-90
2022/03/14 04:53:06;;;;;;;8.95;5.90;;;9.00;99.90;;;;;;4973240;28;20053;-89
2022/03/14 04:55:34;;;;;;;7.82;5.28;;;9.10;99.90;;;;;;4973194;28;20038;-90
2022/03/14 04:58:00;;;;;;;8.10;5.40;;;9.10;99.90;;;;;;4960927;28;20094;-87
2022/03/14 05:00:28;;;;;;;7.63;5.00;;;9.10;99.90;;;;;;4970740;28;20031;-87
2022/03/14 05:03:00;;;;;;;7.60;5.25;;;9.10;99.90;;;;;;4955796;28;20126;-87
2022/03/14 05:05:26;;;;;;;8.30;5.30;;;9.30;99.90;;;;;;4966245;28;20085;-87
2022/03/14 05:07:52;;;;;;;7.05;4.90;;;9.20;99.90;;;;;;4957235;28;20194;-87
2022/03/14 05:10:18;;;;;;;6.90;4.55;;;9.20;99.90;;;;;;4957208;28;20141;-88
2022/03/14 05:12:43;;;;;;;6.80;4.85;;;9.40;99.90;;;;;;4949328;28;20093;-87
2022/03/14 05:15:09;;;;;;;6.75;4.75;;;9.30;99.90;;;;;;4970810;28;20043;-87
2022/03/14 05:17:35;;;;;;;7.25;4.38;;;9.30;99.90;;;;;;4946547;29;20130;-87
2022/03/14 05:20:01;;;;;;;6.07;4.15;;;9.30;99.90;;;;;;4952315;28;20119;-87
2022/03/14 05:22:27;;;;;;;5.78;3.95;;;9.30;99.90;;;;;;4953797;29;20047;-87
2022/03/14 05:24:53;;;;;;;5.55;3.95;;;9.40;99.90;;;;;;4946459;29;20039;-87
2022/03/14 05:27:19;;;;;;;6.10;4.00;;;9.40;99.90;;;;;;4955455;28;20093;-87
2022/03/14 05:29:44;;;;;;;5.75;3.83;;;10.00;99.90;;;;;;4952746;28;20053;-87
2022/03/14 05:32:10;;;;;;;5.30;3.80;;;9.50;99.90;;;;;;4972962;28;20050;-87
2022/03/14 05:34:36;;;;;;;7.53;3.95;;;9.50;99.90;;;;;;4973245;28;20050;-87
2022/03/14 05:37:02;;;;;;;5.18;3.65;;;9.50;99.90;;;;;;4938063;28;20043;-87
2022/03/14 05:39:28;;;;;;;6.38;4.05;;;9.60;99.90;;;;;;4950414;29;20047;-87
2022/03/14 05:41:55;;;;;;;6.47;3.97;;;10.40;99.90;;;;;;4966083;28;20035;-87
2022/03/14 05:44:21;;;;;;;5.88;3.88;;;9.60;99.90;;;;;;4970654;28;20437;-87
2022/03/14 05:46:47;;;;;;;5.55;3.63;;;9.60;99.90;;;;;;4971107;28;20035;-87
2022/03/14 05:49:12;;;;;;;5.28;3.55;;;9.70;99.90;;;;;;4939731;28;20481;-87
2022/03/14 05:51:39;;;;;;;5.75;3.67;;;9.60;99.90;;;;;;4938894;28;20047;-87
2022/03/14 05:54:05;;;;;;;5.35;3.38;;;9.70;99.90;;;;;;4936803;28;20070;-87
2022/03/14 05:56:31;;;;;;;5.07;3.42;;;9.70;99.90;;;;;;4940622;28;20133;-87
2022/03/14 05:58:57;;;;;;;5.25;3.50;;;9.70;99.90;;;;;;4944763;28;20126;-87
2022/03/14 06:01:23;;;;;;;8.32;3.85;;;9.70;99.90;;;;;;4962196;28;20035;-87
2022/03/14 06:03:51;;;;;;;5.47;3.50;;;9.70;99.90;;;;;;4963305;28;20046;-88
2022/03/14 06:06:16;;;;;;;6.35;4.10;;;9.70;99.90;;;;;;4951796;29;20067;-88
2022/03/14 06:08:42;;;;;;;6.78;3.88;;;9.70;99.90;;;;;;4948526;28;20085;-88
2022/03/14 06:11:08;;;;;;;5.70;3.97;;;9.70;99.90;;;;;;4967514;28;20047;-88
2022/03/14 06:13:35;;;;;;;6.32;3.78;;;10.50;99.90;;;;;;4956298;28;20038;-88
2022/03/14 06:16:01;;;;;;;5.38;3.53;;;9.80;99.90;;;;;;4972486;28;20055;-88
2022/03/14 06:18:29;;;;;;;6.10;3.78;;;9.80;99.90;;;;;;4955574;28;20046;-88
2022/03/14 06:20:58;;;;;;;4.88;3.22;;;9.80;99.90;;;;;;4956970;28;20466;-87
2022/03/14 06:23:23;;;;;;;6.15;4.10;;;9.80;99.90;;;;;;4972411;28;20050;-90
2022/03/14 06:25:50;;;;;;;5.78;3.50;;;9.80;99.90;;;;;;4970363;28;20085;-90
2022/03/14 06:28:16;;;;;;;5.63;3.75;;;9.80;99.90;;;;;;4967735;28;20489;-90
2022/03/14 06:30:42;;;;;;;5.57;3.75;;;9.80;99.90;;;;;;4953764;28;20485;-89
2022/03/14 06:33:07;;;;;;;6.07;3.53;;;9.80;99.90;;;;;;4947929;28;20047;-90
2022/03/14 06:35:35;;;;;;;6.15;3.88;;;9.80;99.90;;;;;;4949654;28;20142;-90
2022/03/14 06:38:03;;;;;;;5.72;3.65;;;9.80;99.90;;;;;;4975925;28;20449;-87
2022/03/14 06:40:28;;;;;;;5.00;3.58;;;9.80;99.90;;;;;;4972611;28;20043;-87
2022/03/14 06:42:55;;;;;;;5.35;3.63;;;9.80;99.90;;;;;;4949104;28;20042;-87
2022/03/14 06:45:22;;;;;;;6.55;3.92;;;9.80;99.90;;;;;;4954251;28;20042;-87
2022/03/14 06:47:48;;;;;;;5.57;3.63;;;9.80;99.90;;;;;;4969537;28;20397;-87
2022/03/14 06:50:14;;;;;;;6.85;4.28;;;9.80;99.90;;;;;;4970187;28;20170;-88
2022/03/14 06:52:40;;;;;;;6.32;4.30;;;9.80;99.90;;;;;;4972906;28;20480;-88
2022/03/14 06:55:06;;;;;;;6.57;4.10;;;10.00;99.90;;;;;;4972832;28;20050;-87
2022/03/14 06:57:33;;;;;;;11.27;3.90;;;9.80;99.90;;;;;;4959369;28;20043;-87
2022/03/14 06:59:59;;;;;;;5.72;3.85;;;9.80;99.90;;;;;;4971321;28;20038;-87
2022/03/14 07:02:28;;;;;;;6.60;3.80;;;10.40;99.90;;;;;;4949418;28;20434;-87
2022/03/14 07:04:54;;;;;;;5.28;4.00;;;9.80;99.90;;;;;;4957891;28;20385;-87
2022/03/14 07:07:20;;;;;;;6.20;4.40;;;9.80;99.90;;;;;;4942296;28;20035;-87
2022/03/14 07:09:45;;;;;;;5.85;4.15;;;9.80;99.90;;;;;;4962410;28;20043;-88
2022/03/14 07:12:12;;;;;;;6.13;4.20;;;10.60;99.90;;;;;;4958411;28;20093;-87
2022/03/14 07:14:37;;;;;;;6.45;4.38;;;10.00;99.90;;;;;;4950084;28;20043;-87
2022/03/14 07:17:03;;;;;;;5.68;3.97;;;9.80;99.90;;;;;;4953596;28;20043;-87
2022/03/14 07:19:29;;;;;;;6.25;4.30;;;9.90;99.90;;;;;;4988513;28;20043;-87
2022/03/14 07:21:55;;;;;;;7.45;4.03;;;9.90;99.90;;;;;;4970243;28;20046;-88
2022/03/14 07:24:21;;;;;;;6.65;4.65;;;9.90;99.90;;;;;;4952482;28;20147;-87
2022/03/14 07:26:46;;;;;;;6.07;4.40;;;10.00;99.90;;;;;;4948748;28;20031;-87
2022/03/14 07:29:12;;;;;;;6.55;4.32;;;10.30;99.90;;;;;;4950394;28;20478;-87
2022/03/14 07:31:38;;;;;;;6.38;4.53;;;9.90;99.90;;;;;;4949680;28;20035;-87
2022/03/14 07:34:04;;;;;;;7.00;4.38;;;9.90;99.90;;;;;;4939268;29;20570;-87
2022/03/14 07:36:34;;;;;;;7.78;4.82;;;10.30;99.90;;;;;;4924703;28;20438;-87
2022/03/14 07:39:03;;;;;;;7.50;4.68;;;9.90;99.90;;;;;;4934667;28;20049;-89
2022/03/14 07:41:29;;;;;;;6.95;5.07;;;9.90;99.90;;;;;;4971997;28;20043;-87
2022/03/14 07:43:55;;;;;;;8.25;5.28;;;9.90;99.90;;;;;;4936235;28;20118;-88
2022/03/14 07:46:21;;;;;;;8.25;5.70;;;10.00;99.90;;;;;;4929338;28;20039;-90
2022/03/14 07:48:47;;;;;;;9.02;5.55;;;9.90;99.90;;;;;;4965050;28;20173;-90
2022/03/14 07:51:14;;;;;;;9.77;5.30;;;10.00;99.90;;;;;;4969506;28;20086;-90
2022/03/14 07:53:40;;;;;;;7.55;5.40;;;10.50;99.90;;;;;;4955971;28;20047;-90
2022/03/14 07:56:06;;;;;;;10.93;5.95;;;10.30;99.90;;;;;;4939433;29;20050;-89
2022/03/14 07:58:31;;;;;;;7.88;5.80;;;10.00;99.90;;;;;;4929780;28;20043;-89
2022/03/14 08:00:57;;;;;;;9.23;6.20;;;10.00;99.90;;;;;;4966345;28;20042;-90
2022/03/14 08:03:23;;;;;;;10.80;6.55;;;10.10;99.90;;;;;;4925377;28;20130;-89
2022/03/14 08:05:56;;;;;;;8.93;7.05;;;10.00;99.90;;;;;;4942485;28;20118;-89
2022/03/14 08:08:22;;;;;;;9.43;7.05;;;10.00;99.90;;;;;;4949297;28;20462;-89
2022/03/14 08:10:48;;;;;;;8.38;6.30;;;10.10;99.90;;;;;;4963773;28;20050;-89
2022/03/14 08:13:14;;;;;;;8.70;6.60;;;10.00;99.90;;;;;;4963419;28;20129;-91
2022/03/14 08:15:40;;;;;;;12.20;7.20;;;10.30;99.90;;;;;;4968136;28;20133;-91
2022/03/14 08:18:08;;;;;;;8.95;6.97;;;10.10;99.90;;;;;;4971461;28;20050;-90
2022/03/14 08:20:34;;;;;;;12.68;7.57;;;10.10;99.90;;;;;;4965655;28;20045;-89
2022/03/14 08:23:02;;;;;;;10.23;7.25;;;10.10;99.90;;;;;;4942100;28;20099;-90
2022/03/14 08:25:30;;;;;;;13.75;7.80;;;10.10;99.90;;;;;;4964932;28;20438;-89
2022/03/14 08:27:56;;;;;;;11.73;8.82;;;10.10;99.90;;;;;;4965882;28;20556;-90
2022/03/14 08:30:22;;;;;;;13.40;9.60;;;10.10;99.90;;;;;;4953348;28;20047;-90
2022/03/14 08:32:48;;;;;;;13.95;9.57;;;10.10;99.90;;;;;;4965085;28;20051;-90
2022/03/14 08:35:17;;;;;;;18.75;13.52;;;10.10;99.90;;;;;;4954988;28;20485;-89
2022/03/14 08:37:44;;;;;;;17.17;13.75;;;10.10;99.90;;;;;;4956655;28;20058;-90
2022/03/14 08:40:11;;;;;;;20.95;16.23;;;10.00;99.90;;;;;;4954714;28;20484;-88
2022/03/14 08:42:41;;;;;;;20.30;16.05;;;10.00;99.90;;;;;;4945137;28;20043;-88
2022/03/14 08:45:08;;;;;;;22.25;16.40;;;10.00;99.90;;;;;;4955059;28;20043;-88
2022/03/14 08:47:35;;;;;;;21.52;16.30;;;9.90;99.90;;;;;;4990334;23;20050;-88
2022/03/14 08:50:02;;;;;;;22.00;16.48;;;9.80;99.90;;;;;;4959680;28;20061;-88
2022/03/14 08:52:29;;;;;;;21.67;16.42;;;9.70;99.90;;;;;;4976494;28;20128;-90
2022/03/14 08:54:56;;;;;;;21.92;16.63;;;9.70;99.90;;;;;;4976356;28;20046;-90
2022/03/14 08:57:22;;;;;;;23.70;18.02;;;10.10;99.90;;;;;;4977342;28;20050;-90
2022/03/14 08:59:48;;;;;;;24.77;18.65;;;9.60;99.90;;;;;;4974021;28;20477;-90
2022/03/14 09:02:13;;;;;;;25.92;19.02;;;9.60;99.90;;;;;;5003396;28;20050;-90
2022/03/14 09:04:39;;;;;;;27.30;18.92;;;9.70;99.90;;;;;;5009189;28;20126;-87
2022/03/14 09:07:05;;;;;;;25.48;19.63;;;9.70;99.90;;;;;;4974004;28;20416;-88
2022/03/14 09:09:31;;;;;;;26.52;18.85;;;9.60;99.90;;;;;;4973656;28;20047;-90
2022/03/14 09:11:58;;;;;;;26.42;19.10;;;9.60;99.90;;;;;;4989326;28;20098;-90
2022/03/14 09:14:24;;;;;;;27.38;19.65;;;9.50;99.90;;;;;;4975952;28;20034;-90
2022/03/14 09:16:50;;;;;;;29.35;20.17;;;9.50;99.90;;;;;;4991874;28;20444;-89
2022/03/14 09:19:16;;;;;;;28.27;19.95;;;9.50;99.90;;;;;;4973628;28;20097;-89
2022/03/14 09:21:42;;;;;;;26.73;18.77;;;9.50;99.90;;;;;;4986715;28;20070;-89
2022/03/14 09:24:08;;;;;;;30.27;20.00;;;9.40;99.90;;;;;;4966436;28;20110;-89
2022/03/14 09:26:35;;;;;;;32.88;20.20;;;9.30;99.90;;;;;;4971309;28;20041;-88
2022/03/14 09:29:02;;;;;;;26.85;17.73;;;9.40;99.90;;;;;;5006244;28;20438;-88
2022/03/14 09:31:29;;;;;;;28.95;17.10;;;9.40;99.90;;;;;;4995852;28;21238;-87
2022/03/14 09:33:55;;;;;;;27.50;16.38;;;9.70;99.90;;;;;;4987288;28;20078;-88
2022/03/14 09:36:21;;;;;;;27.48;16.92;;;9.40;99.90;;;;;;4995209;28;20089;-88
2022/03/14 09:38:46;;;;;;;27.02;16.92;;;9.40;99.90;;;;;;4978643;28;20039;-87
2022/03/14 09:41:17;;;;;;;23.83;15.15;;;9.50;99.90;;;;;;5001876;28;20033;-90
2022/03/14 09:43:46;;;;;;;23.52;13.25;;;9.50;99.90;;;;;;5008982;28;20046;-90
2022/03/14 09:46:13;;;;;;;20.83;12.57;;;9.50;99.90;;;;;;4980372;28;20081;-90
2022/03/14 09:48:48;;;;;;;22.25;11.43;;;9.60;99.90;;;;;;4955219;28;20046;-90
2022/03/14 09:51:16;;;;;;;20.13;11.35;;;9.60;99.90;;;;;;4959217;28;20050;-90
2022/03/14 09:53:42;;;;;;;19.75;10.80;;;9.60;99.90;;;;;;4960896;28;20050;-91
2022/03/14 09:56:08;;;;;;;20.83;10.00;;;9.60;99.90;;;;;;4972955;28;20054;-89
2022/03/14 09:58:34;;;;;;;20.08;10.90;;;10.30;99.90;;;;;;4959617;28;20078;-88
2022/03/14 10:01:01;;;;;;;17.27;9.52;;;9.70;99.90;;;;;;4959938;28;20116;-87
2022/03/14 10:03:27;;;;;;;18.27;9.57;;;10.30;99.90;;;;;;4956862;28;20547;-87
2022/03/14 10:05:53;;;;;;;24.02;10.43;;;9.80;99.90;;;;;;4972733;28;20030;-87
2022/03/14 10:08:18;;;;;;;19.15;9.80;;;9.80;99.90;;;;;;4943346;28;20038;-87
2022/03/14 10:10:44;;;;;;;20.90;9.75;;;9.90;99.90;;;;;;4988678;28;20069;-87
2022/03/14 10:13:14;;;;;;;19.92;10.02;;;9.90;99.90;;;;;;4993746;28;20040;-85
2022/03/14 10:15:40;;;;;;;21.13;9.45;;;10.00;99.90;;;;;;4994888;28;20038;-87
2022/03/14 10:18:11;;;;;;;19.90;9.10;;;10.10;99.90;;;;;;4974227;28;20089;-87
2022/03/14 10:20:38;;;;;;;17.42;7.60;;;10.20;99.90;;;;;;4993486;28;20038;-87
2022/03/14 10:23:04;;;;;;;15.45;7.15;;;10.20;99.90;;;;;;4995762;28;20053;-87
2022/03/14 10:25:30;;;;;;;21.27;7.47;;;10.30;99.90;;;;;;4971231;28;20034;-87
2022/03/14 10:27:57;;;;;;;17.58;7.13;;;10.40;99.90;;;;;;4953654;28;20056;-87
2022/03/14 10:30:35;;;;;;;16.45;6.95;;;10.40;99.90;;;;;;4955754;28;20084;-87
2022/03/14 10:33:12;;;;;;;14.85;6.28;;;10.50;99.90;;;;;;4979548;28;20046;-85
2022/03/14 10:35:43;;;;;;;15.10;5.90;;;10.60;99.90;;;;;;4979179;28;20039;-85
2022/03/14 10:38:11;;;;;;;17.20;6.10;;;10.60;99.90;;;;;;4973170;28;20528;-85
2022/03/14 10:40:48;;;;;;;13.73;5.50;;;10.60;99.90;;;;;;5002086;28;20566;-85
2022/03/14 10:43:24;;;;;;;11.73;5.55;;;10.70;99.90;;;;;;4971826;28;20436;-85
2022/03/14 10:45:50;;;;;;;;;;;10.70;99.90;;;;;;4998998;28;20030;-85
2022/03/14 10:48:16;;;;;;;12.85;5.45;;;10.70;99.90;;;;;;4980421;28;20383;-85
2022/03/14 10:50:43;;;;;;;12.52;5.75;;;10.60;99.90;;;;;;4987242;28;20050;-86
2022/03/14 10:53:11;;;;;;;16.05;6.47;;;10.60;99.90;;;;;;4975305;28;20034;-86
2022/03/14 10:55:42;;;;;;;17.35;6.50;;;10.50;99.90;;;;;;4999699;28;20053;-86
2022/03/14 10:58:17;;;;;;;17.13;6.60;;;10.60;99.90;;;;;;5010810;28;20081;-85
2022/03/14 11:00:50;;;;;;;15.38;6.88;;;10.60;99.90;;;;;;4993426;28;20045;-86
2022/03/14 11:03:23;;;;;;;17.52;7.57;;;10.50;99.90;;;;;;5010377;28;20038;-85
2022/03/14 11:05:50;;;;;;;23.25;9.15;;;10.50;99.90;;;;;;5003579;28;20054;-86
2022/03/14 11:08:34;;;;;;;20.88;8.25;;;10.40;99.90;;;;;;4980633;28;20027;-86
2022/03/14 11:11:11;;;;;;;15.30;7.53;;;10.40;99.90;;;;;;4974683;28;20042;-85
2022/03/14 11:13:42;;;;;;;19.05;8.27;;;10.40;99.90;;;;;;5008249;28;20388;-85
2022/03/14 11:16:20;;;;;;;14.63;7.25;;;10.30;99.90;;;;;;4983577;28;20068;-86
2022/03/14 11:18:47;;;;;;;17.95;8.80;;;10.50;99.90;;;;;;4983275;28;20046;-86
2022/03/14 11:21:14;;;;;;;17.45;8.82;;;11.20;99.90;;;;;;4992345;28;20054;-88
2022/03/14 11:23:43;;;;;;;16.95;8.77;;;10.60;99.90;;;;;;4984783;28;20117;-89
2022/03/14 11:26:10;;;;;;;16.95;9.27;;;10.60;99.90;;;;;;4975584;28;20129;-88
2022/03/14 11:28:38;;;;;;;17.80;8.68;;;10.60;99.90;;;;;;4982673;28;20397;-88
2022/03/14 11:31:05;;;;;;;19.45;9.90;;;10.70;99.90;;;;;;4980422;28;20053;-88
2022/03/14 11:33:32;;;;;;;15.95;9.15;;;10.70;99.90;;;;;;4988691;28;20081;-88
2022/03/14 11:36:03;;;;;;;18.02;9.73;;;10.80;99.90;;;;;;4968051;28;20031;-89
2022/03/14 11:38:32;;;;;;;23.30;9.52;;;10.80;99.90;;;;;;5003486;28;20042;-87
2022/03/14 11:41:00;;;;;;;21.83;9.90;;;10.80;99.90;;;;;;4993054;28;20189;-86
2022/03/14 11:43:26;;;;;;;20.08;10.13;;;10.80;99.90;;;;;;4965256;28;20074;-87
2022/03/14 11:45:52;;;;;;;24.25;10.57;;;10.80;99.90;;;;;;4978570;28;20031;-86
2022/03/14 11:48:20;;;;;;;21.70;11.38;;;10.80;99.90;;;;;;4994836;28;20042;-87
2022/03/14 11:50:56;;;;;;;24.27;11.70;;;10.80;99.90;;;;;;4995315;28;20054;-87
2022/03/14 11:53:28;;;;;;;26.15;12.80;;;10.80;99.90;;;;;;4992075;28;20112;-86
2022/03/14 11:56:05;;;;;;;25.00;11.35;;;10.90;99.90;;;;;;4996336;28;20046;-87
2022/03/14 11:58:40;;;;;;;20.95;11.52;;;11.00;99.90;;;;;;5006746;28;20042;-87
2022/03/14 12:01:20;;;;;;;21.23;11.05;;;11.10;99.90;;;;;;4989832;28;20058;-87
2022/03/14 12:04:00;;;;;;;24.98;12.50;;;11.20;99.90;;;;;;5007192;28;20045;-87
2022/03/14 12:06:47;;;;;;;23.08;11.20;;;11.30;99.90;;;;;;4994689;28;20038;-87
2022/03/14 12:09:25;;;;;;;22.85;11.75;;;11.40;99.90;;;;;;4990579;28;20043;-87
2022/03/14 12:11:52;;;;;;;22.92;10.63;;;11.40;99.90;;;;;;4983317;28;20037;-85
2022/03/14 12:14:33;;;;;;;24.95;11.07;;;11.50;99.90;;;;;;4989736;28;20042;-85
2022/03/14 12:17:27;;;;;;;22.50;10.85;;;11.50;99.90;;;;;;5009244;28;20050;-85
2022/03/14 12:20:25;;;;;;;24.58;12.32;;;11.60;99.90;;;;;;4994984;28;20042;-85
2022/03/14 12:22:51;;;;;;;25.63;11.55;;;11.80;99.90;;;;;;4997742;28;20042;-86
2022/03/14 12:25:42;;;;;;;28.30;11.45;;;11.90;99.90;;;;;;5003265;28;20884;-85
2022/03/14 12:28:30;;;;;;;24.75;10.82;;;12.00;99.90;;;;;;4974908;28;20038;-87
2022/03/14 12:31:03;;;;;;;22.05;11.18;;;12.10;99.90;;;;;;4973338;28;20042;-87
2022/03/14 12:33:38;;;;;;;21.50;10.77;;;12.20;99.90;;;;;;5000847;28;20087;-87
2022/03/14 12:36:22;;;;;;;20.80;9.30;;;12.20;99.90;;;;;;4990083;28;20465;-87
2022/03/14 12:39:06;;;;;;;14.35;8.90;;;12.10;99.90;;;;;;4997860;28;20043;-87
2022/03/14 12:41:33;;;;;;;19.98;8.95;;;12.30;99.90;;;;;;5000969;28;20096;-87
2022/03/14 12:43:59;;;;;;;19.77;8.73;;;12.30;99.90;;;;;;4954083;28;20066;-87